Time;durP1;ratioP1;P1;durP2;ratioP2;P2;SDS_P1;SDS_P2;PMS_P1;PMS_P2;Temp;Humidity;BMP_temperature;BMP_pressure;BME280_temperature;BME280_humidity;BME280_pressure;Samples;Min_cycle;Max_cycle;Signal;HPM_P1;HPM_P2
2022/04/12 04:55:12;;;;;;;;;;;;;;;3.96;95.82;99118.91;4942380;28;19937;-86
2022/04/12 04:57:38;;;;;;;;;;;;;;;3.92;95.58;99112.84;4943179;29;19926;-86
2022/04/12 05:00:07;;;;;;;;;;;;;;;3.90;94.88;99109.44;4944673;29;19925;-87
2022/04/12 05:02:32;;;;;;;;;;;;;;;3.89;94.55;99117.31;4943761;29;19937;-87
2022/04/12 05:04:57;;;;;;;;;;;;;;;3.86;94.08;99112.16;4943647;29;20021;-86
2022/04/12 05:07:26;;;;;;;;;;;;;;;3.87;93.61;99114.75;4941927;29;19919;-88
2022/04/12 05:09:52;;;;;;;;;;;;;;;3.80;93.17;99115.81;4944079;29;19923;-86
2022/04/12 05:12:17;;;;;;;;;;;;;;;3.78;92.95;99123.72;4944833;29;19929;-85
2022/04/12 05:14:42;;;;;;;;;;;;;;;3.80;92.59;99116.69;4944134;29;19919;-85
2022/04/12 05:17:07;;;;;;;;;;;;;;;3.77;92.08;99121.13;4943365;29;19919;-86
2022/04/12 05:19:33;;;;;;;;;;;;;;;3.75;91.93;99121.19;4944163;29;19918;-85
2022/04/12 05:21:58;;;;;;;;;;;;;;;3.68;91.62;99121.38;4942595;29;20478;-85
2022/04/12 05:24:23;;;;;;;;;;;;;;;3.76;91.19;99128.13;4944243;29;20382;-86
2022/04/12 05:26:48;;;;;;;;;;;;;;;3.74;91.01;99124.69;4943576;29;20473;-86
2022/04/12 05:29:13;;;;;;;;;;;;;;;3.70;90.63;99124.81;4943504;29;19918;-87
2022/04/12 05:31:39;;;;;;;;;;;;;;;3.66;90.38;99124.03;4943265;29;19919;-82
2022/04/12 05:34:04;;;;;;;;;;;;;;;3.67;90.22;99132.75;4942864;29;19925;-86
2022/04/12 05:36:29;;;;;;;;;;;;;;;3.64;90.00;99149.41;4943325;29;19930;-86
2022/04/12 05:38:56;;;;;;;;;;;;;;;3.56;89.92;99151.38;4943235;29;19925;-84
2022/04/12 05:41:22;;;;;;;;;;;;;;;3.64;89.76;99141.56;4944375;28;19922;-84
2022/04/12 05:43:47;;;;;;;;;;;;;;;3.59;89.50;99146.91;4942803;29;20375;-85
2022/04/12 05:46:12;;;;;;;;;;;;;;;3.55;89.29;99149.63;4943782;29;19919;-85
2022/04/12 05:48:37;;;;;;;;;;;;;;;3.52;89.35;99155.78;4944157;29;20022;-85
2022/04/12 05:51:03;;;;;;;;;;;;;;;3.79;91.62;99149.00;4943888;29;19961;-86
2022/04/12 05:53:28;;;;;;;;;;;;;;;3.89;93.50;99159.28;4942480;29;19969;-87
2022/04/12 05:55:53;;;;;;;;;;;;;;;3.87;94.70;99150.59;4943796;29;19989;-86
2022/04/12 05:58:19;;;;;;;;;;;;;;;3.82;95.08;99153.31;4944043;29;19918;-87
2022/04/12 06:00:44;;;;;;;;;;;;;;;3.77;95.28;99165.69;4942795;29;20013;-86
2022/04/12 06:03:09;;;;;;;;;;;;;;;3.75;95.45;99172.72;4943208;29;19930;-83
2022/04/12 06:05:35;;;;;;;;;;;;;;;3.73;95.54;99174.50;4943787;29;19973;-83
2022/04/12 06:08:00;;;;;;;;;;;;;;;3.73;95.43;99164.88;4942986;29;19929;-84
2022/04/12 06:10:25;;;;;;;;;;;;;;;3.60;95.23;99169.56;4943841;28;19929;-85
2022/04/12 06:12:51;;;;;;;;;;;;;;;3.59;95.36;99162.63;4943924;29;19923;-86
2022/04/12 06:15:16;;;;;;;;;;;;;;;3.59;95.23;99166.97;4942139;29;20390;-85
2022/04/12 06:17:41;;;;;;;;;;;;;;;3.57;95.06;99166.16;4944207;29;19919;-84
2022/04/12 06:20:11;;;;;;;;;;;;;;;3.58;95.13;99173.13;4942448;29;19923;-84
2022/04/12 06:22:37;;;;;;;;;;;;;;;3.55;94.91;99167.97;4941010;29;19922;-85
2022/04/12 06:25:03;;;;;;;;;;;;;;;3.49;94.77;99160.25;4942881;29;19925;-84
2022/04/12 06:27:32;;;;;;;;;;;;;;;3.49;94.52;99171.59;4942458;29;20359;-85
2022/04/12 06:29:58;;;;;;;;;;;;;;;3.46;94.43;99171.66;4939143;28;20007;-85
2022/04/12 06:32:24;;;;;;;;;;;;;;;3.47;94.38;99162.91;4945942;29;19919;-84
2022/04/12 06:34:49;;;;;;;;;;;;;;;3.46;94.12;99169.03;4945830;29;19942;-85
2022/04/12 06:37:14;;;;;;;;;;;;;;;3.47;93.67;99162.91;4945521;29;20378;-84
2022/04/12 06:39:40;;;;;;;;;;;;;;;3.44;93.58;99158.59;4945237;29;20286;-85
2022/04/12 06:42:05;;;;;;;;;;;;;;;3.41;93.48;99156.03;4946030;29;19929;-85
2022/04/12 06:44:32;;;;;;;;;;;;;;;3.44;93.05;99155.97;4947014;29;19990;-84
2022/04/12 07:48:27;;;;;;;;;;;;;;;3.40;89.17;99149.09;4925948;23;19932;-85
2022/04/12 07:50:52;;;;;;;;;;;;;;;3.40;89.58;99150.88;4906665;29;19927;-87
2022/04/12 07:53:18;;;;;;;;;;;;;;;3.42;89.54;99144.69;4903517;29;19919;-86
2022/04/12 07:55:43;;;;;;;;;;;;;;;3.44;89.40;99149.88;4907758;29;19955;-86
2022/04/12 07:58:08;;;;;;;;;;;;;;;3.47;89.32;99148.97;4908283;29;19962;-86
2022/04/12 08:00:33;;;;;;;;;;;;;;;3.46;89.49;99150.69;4907138;29;19974;-84
2022/04/12 08:02:59;;;;;;;;;;;;;;;3.44;89.36;99150.75;4905851;29;20394;-84
2022/04/12 08:05:24;;;;;;;;;;;;;;;3.48;89.05;99154.16;4907438;29;19923;-84
2022/04/12 08:07:49;;;;;;;;;;;;;;;3.45;89.04;99154.25;4929773;29;19923;-84
2022/04/12 08:10:18;;;;;;;;;;;;;;;3.49;88.89;99152.41;4904972;29;19928;-84
2022/04/12 08:12:44;;;;;;;;;;;;;;;3.50;89.00;99156.75;4905996;29;19969;-84
2022/04/12 08:15:10;;;;;;;;;;;;;;;3.49;88.73;99155.03;4929574;29;19930;-84
2022/04/12 08:17:36;;;;;;;;;;;;;;;3.53;88.63;99157.53;4905678;29;19927;-84
2022/04/12 08:20:01;;;;;;;;;;;;;;;3.52;88.36;99160.19;4906291;29;19919;-84
2022/04/12 08:22:26;;;;;;;;;;;;;;;3.45;88.29;99154.25;4906565;29;19952;-83
2022/04/12 08:24:52;;;;;;;;;;;;;;;3.51;88.16;99158.44;4907134;29;20283;-84
2022/04/12 08:27:17;;;;;;;;;;;;;;;3.54;88.01;99153.13;4905957;29;20381;-83
2022/04/12 08:29:43;;;;;;;;;;;;;;;3.55;87.84;99154.88;4907398;29;19924;-84
2022/04/12 08:32:08;;;;;;;;;;;;;;;3.53;87.71;99156.69;4928485;29;19919;-84
2022/04/12 08:34:33;;;;;;;;;;;;;;;3.55;87.70;99157.50;4906850;29;19927;-83
2022/04/12 08:36:58;;;;;;;;;;;;;;;3.55;87.31;99162.72;4907227;29;19962;-84
2022/04/12 08:39:24;;;;;;;;;;;;;;;3.57;87.37;99153.91;4907722;29;19923;-84
2022/04/12 08:41:51;;;;;;;;;;;;;;;3.55;87.20;99160.13;4906887;29;19920;-83
2022/04/12 08:44:17;;;;;;;;;;;;;;;3.51;86.98;99155.84;4906678;29;20603;-83
2022/04/12 08:46:43;;;;;;;;;;;;;;;3.52;86.92;99154.94;4904694;29;19927;-84
2022/04/12 08:49:08;;;;;;;;;;;;;;;3.54;86.69;99154.03;4907371;29;19955;-83
2022/04/12 08:51:34;;;;;;;;;;;;;;;3.58;86.43;99153.03;4903949;29;20054;-83
2022/04/12 08:54:00;;;;;;;;;;;;;;;3.53;86.29;99152.28;4905874;29;19928;-83
2022/04/12 08:56:27;;;;;;;;;;;;;;;3.57;86.17;99158.31;4906029;29;20018;-83
2022/04/12 08:58:52;;;;;;;;;;;;;;;3.58;85.99;99146.94;4903168;29;20367;-84
2022/04/12 09:01:17;;;;;;;;;;;;;;;3.56;85.92;99141.75;4905442;29;19919;-84
2022/04/12 09:03:45;;;;;;;;;;;;;;;3.60;85.96;99147.75;4887784;29;20382;-84
2022/04/12 09:06:10;;;;;;;;;;;;;;;3.55;85.80;99147.88;4905640;29;19931;-83
2022/04/12 09:08:35;;;;;;;;;;;;;;;3.61;85.63;99141.63;4902100;29;19927;-84
2022/04/12 09:11:05;;;;;;;;;;;;;;;3.57;85.46;99138.19;4907825;29;20367;-84
2022/04/12 09:13:31;;;;;;;;;;;;;;;3.64;85.65;99144.19;4905109;29;19930;-84
2022/04/12 09:15:57;;;;;;;;;;;;;;;3.64;85.56;99139.78;4904241;29;19923;-83
2022/04/12 09:18:35;;;;;;;;;;;;;;;3.61;85.34;99129.38;4904714;29;20264;-84
2022/04/12 09:21:16;;;;;;;;;;;;;;;3.63;85.31;99124.09;4928545;29;20459;-84
2022/04/12 09:23:42;;;;;;;;;;;;;;;3.58;85.08;99128.59;4928825;29;20390;-83
2022/04/12 09:26:08;;;;;;;;;;;;;;;3.61;85.00;99120.66;4906650;29;19923;-83
2022/04/12 09:28:42;;;;;;;;;;;;;;;3.65;84.95;99119.69;4906094;29;19927;-83
2022/04/12 09:31:15;;;;;;;;;;;;;;;3.61;84.85;99123.28;4903605;29;19954;-84
2022/04/12 09:33:41;;;;;;;;;;;;;;;3.65;84.86;99124.91;4905063;29;20254;-83
2022/04/12 09:36:07;;;;;;;;;;;;;;;3.64;84.67;99120.59;4904617;29;20291;-83
2022/04/12 09:38:33;;;;;;;;;;;;;;;3.62;84.51;99109.28;4904707;29;19919;-83
2022/04/12 09:41:18;;;;;;;;;;;;;;;3.69;84.68;99108.22;4905450;29;19930;-84
2022/04/12 09:43:53;;;;;;;;;;;;;;;3.63;84.54;99106.63;4906040;29;19923;-83
2022/04/12 09:46:19;;;;;;;;;;;;;;;3.65;84.65;99098.72;4904553;29;19949;-84
2022/04/12 09:48:45;;;;;;;;;;;;;;;3.70;84.63;99102.09;4905768;29;19924;-84
2022/04/12 09:51:11;;;;;;;;;;;;;;;3.68;84.64;99098.63;4905883;29;20401;-83
2022/04/12 09:53:41;;;;;;;;;;;;;;;3.70;84.64;99101.22;4906036;29;19927;-84
2022/04/12 09:56:16;;;;;;;;;;;;;;;3.72;84.57;99097.69;4904527;29;20411;-83
2022/04/12 09:58:43;;;;;;;;;;;;;;;3.72;84.64;99100.28;4904535;29;20319;-83
2022/04/12 10:01:09;;;;;;;;;;;;;;;3.71;84.48;99090.69;4904043;29;19923;-83
2022/04/12 10:03:36;;;;;;;;;;;;;;;3.74;84.55;99088.00;4903811;29;19923;-84
2022/04/12 10:06:02;;;;;;;;;;;;;;;3.75;84.69;99094.09;4906254;29;19934;-83
2022/04/12 10:08:30;;;;;;;;;;;;;;;3.76;84.59;99091.44;4908765;29;19923;-83
2022/04/12 10:10:58;;;;;;;;;;;;;;;3.76;84.67;99091.44;4906299;29;20553;-83
2022/04/12 10:13:23;;;;;;;;;;;;;;;3.79;84.70;99082.66;4909434;29;19924;-87
2022/04/12 10:15:48;;;;;;;;;;;;;;;3.81;84.45;99086.06;4909044;29;19915;-87
2022/04/12 10:18:17;;;;;;;;;;;;;;;3.79;84.68;99086.13;4908653;29;20397;-86
2022/04/12 10:20:43;;;;;;;;;;;;;;;3.79;84.62;99083.50;4909711;29;20445;-87
2022/04/12 10:23:08;;;;;;;;;;;;;;;3.80;84.42;99082.59;4931123;29;20399;-86
2022/04/12 10:25:34;;;;;;;;;;;;;;;3.86;84.68;99085.97;4909165;29;19934;-86
2022/04/12 10:28:03;;;;;;;;;;;;;;;3.89;84.62;99075.38;4907554;29;19954;-85
2022/04/12 10:30:29;;;;;;;;;;;;;;;3.87;84.67;99080.66;4931508;29;19923;-86
2022/04/12 10:32:57;;;;;;;;;;;;;;;3.90;84.91;99077.13;4906415;29;19923;-86
2022/04/12 10:35:23;;;;;;;;;;;;;;;3.90;84.84;99079.75;4908302;29;20276;-86
2022/04/12 10:37:50;;;;;;;;;;;;;;;3.91;84.70;99073.59;4908251;29;19927;-86
2022/04/12 10:40:15;;;;;;;;;;;;;;;3.90;84.95;99074.50;4909261;29;19966;-85
2022/04/12 10:42:41;;;;;;;;;;;;;;;3.94;85.06;99065.63;4931887;29;19965;-86
2022/04/12 10:45:07;;;;;;;;;;;;;;;3.96;85.09;99063.84;4908801;29;19934;-86
2022/04/12 10:47:36;;;;;;;;;;;;;;;3.95;84.68;99056.88;4907787;29;19924;-86
2022/04/12 10:50:06;;;;;;;;;;;;;;;3.99;84.71;99050.66;4908219;29;19923;-85
2022/04/12 10:52:51;;;;;;;;;;;;;;;4.02;84.71;99053.22;4908413;29;19967;-85
2022/04/12 10:55:18;;;;;;;;;;;;;;;4.08;85.20;99049.53;4909083;29;19943;-85
2022/04/12 10:57:44;;;;;;;;;;;;;;;4.09;85.06;99048.63;4907558;29;20054;-86
2022/04/12 11:00:12;;;;;;;;;;;;;;;4.11;84.98;99050.31;4908885;29;20011;-85
2022/04/12 11:02:42;;;;;;;;;;;;;;;4.22;85.50;99051.78;4906858;29;19927;-85
2022/04/12 11:05:28;;;;;;;;;;;;;;;4.22;85.67;99054.41;4908962;29;19928;-86
2022/04/12 11:07:54;;;;;;;;;;;;;;;4.21;85.16;99052.66;4906629;29;19934;-85
2022/04/12 11:10:22;;;;;;;;;;;;;;;4.18;85.12;99049.25;4907694;29;20287;-85
2022/04/12 11:12:49;;;;;;;;;;;;;;;4.21;85.16;99039.56;4906946;29;20367;-86
2022/04/12 11:15:24;;;;;;;;;;;;;;;4.22;85.24;99039.50;4906427;29;20291;-85
2022/04/12 11:18:03;;;;;;;;;;;;;;;4.22;85.04;99036.03;4927948;29;19923;-85
2022/04/12 11:20:28;;;;;;;;;;;;;;;4.25;85.07;99035.94;4931395;29;19982;-86
2022/04/12 11:22:54;;;;;;;;;;;;;;;4.26;84.98;99038.53;4905950;29;20383;-86
2022/04/12 11:25:21;;;;;;;;;;;;;;;4.27;84.97;99031.50;4908461;29;19927;-86
2022/04/12 11:27:47;;;;;;;;;;;;;;;4.31;85.10;99036.63;4906321;29;19927;-86
2022/04/12 11:30:15;;;;;;;;;;;;;;;4.35;85.24;99037.38;4906751;29;19950;-85
2022/04/12 11:32:42;;;;;;;;;;;;;;;4.33;85.27;99032.19;4906911;29;20263;-86
2022/04/12 11:35:08;;;;;;;;;;;;;;;4.36;85.22;99029.47;4907932;29;19966;-86
2022/04/12 11:37:38;;;;;;;;;;;;;;;4.39;85.35;99033.78;4908189;29;19919;-86
2022/04/12 11:40:03;;;;;;;;;;;;;;;4.41;85.22;99031.13;4906687;29;19923;-86
2022/04/12 11:42:29;;;;;;;;;;;;;;;4.43;85.33;99030.16;4907964;29;19920;-86
2022/04/12 11:44:54;;;;;;;;;;;;;;;4.50;85.30;99020.31;4906560;29;20339;-86
2022/04/12 11:47:20;;;;;;;;;;;;;;;4.49;85.28;99024.72;4905362;29;19919;-86
2022/04/12 11:49:45;;;;;;;;;;;;;;;4.53;85.30;99023.72;4907162;29;19975;-86
2022/04/12 11:52:12;;;;;;;;;;;;;;;4.56;85.37;99025.38;4907518;29;19923;-87
2022/04/12 11:54:38;;;;;;;;;;;;;;;4.54;85.30;99022.81;4906938;29;19931;-86
2022/04/12 11:57:07;;;;;;;;;;;;;;;4.60;85.38;99027.03;4929912;29;19927;-86
2022/04/12 11:59:36;;;;;;;;;;;;;;;4.61;85.51;99023.50;4929212;29;19923;-85
2022/04/12 12:02:04;;;;;;;;;;;;;;;4.63;85.60;99031.34;4904979;29;19920;-86
2022/04/12 12:04:30;;;;;;;;;;;;;;;4.61;85.49;99026.13;4907738;29;20299;-86
2022/04/12 12:07:06;;;;;;;;;;;;;;;4.71;85.61;99029.31;4907547;29;19923;-86
2022/04/12 12:09:31;;;;;;;;;;;;;;;4.73;85.57;99027.50;4907042;29;19926;-86
2022/04/12 12:12:01;;;;;;;;;;;;;;;4.72;85.45;99025.78;4908017;29;20041;-86
2022/04/12 12:14:27;;;;;;;;;;;;;;;4.75;85.42;99020.44;4906606;29;19923;-87
2022/04/12 12:17:06;;;;;;;;;;;;;;;4.78;85.32;99022.13;4906374;29;19951;-86
2022/04/12 12:19:37;;;;;;;;;;;;;;;4.79;85.25;99018.59;4906241;29;19930;-85
2022/04/12 12:22:03;;;;;;;;;;;;;;;4.79;85.45;99018.59;4906080;29;19935;-86
2022/04/12 12:24:29;;;;;;;;;;;;;;;4.82;85.38;99026.34;4906917;29;19927;-86
2022/04/12 12:26:55;;;;;;;;;;;;;;;4.83;85.37;99025.44;4906227;29;19923;-86
2022/04/12 12:29:22;;;;;;;;;;;;;;;4.82;85.20;99024.59;4905073;29;19923;-86
2022/04/12 12:31:47;;;;;;;;;;;;;;;4.80;85.39;99021.13;4904952;29;19927;-86
2022/04/12 12:34:31;;;;;;;;;;;;;;;4.86;85.58;99014.84;4907191;29;20014;-86
2022/04/12 12:36:57;;;;;;;;;;;;;;;4.87;85.77;99017.44;4906813;29;19928;-86
2022/04/12 12:39:25;;;;;;;;;;;;;;;4.85;85.55;99021.88;4906792;29;19920;-86
2022/04/12 12:41:54;;;;;;;;;;;;;;;4.86;85.63;99018.31;4906651;29;19920;-86
2022/04/12 12:44:21;;;;;;;;;;;;;;;4.87;85.61;99020.06;4906643;29;19923;-86
2022/04/12 12:46:46;;;;;;;;;;;;;;;4.88;85.52;99013.91;4905243;29;19923;-86
2022/04/12 12:49:16;;;;;;;;;;;;;;;4.89;85.65;99005.09;4928373;29;19933;-86
2022/04/12 12:51:42;;;;;;;;;;;;;;;4.99;86.50;99005.66;4905706;29;19919;-86
2022/04/12 12:54:12;;;;;;;;;;;;;;;5.12;87.28;98998.25;4905790;29;19978;-87
2022/04/12 12:56:39;;;;;;;;;;;;;;;5.14;88.41;98991.19;4904803;29;19923;-86
2022/04/12 12:59:20;;;;;;;;;;;;;;;5.18;89.45;99002.44;4904376;29;20395;-86
2022/04/12 13:01:50;;;;;;;;;;;;;;;5.13;90.05;98994.72;4904386;29;19923;-86
2022/04/12 13:04:36;;;;;;;;;;;;;;;5.12;90.27;98998.25;4905090;29;19927;-86
2022/04/12 13:07:02;;;;;;;;;;;;;;;4.94;90.35;98991.00;4906243;29;20010;-86
2022/04/12 13:09:28;;;;;;;;;;;;;;;4.84;90.56;98986.03;4905641;29;19975;-86
2022/04/12 13:11:53;;;;;;;;;;;;;;;4.76;90.74;98997.69;4906045;29;19923;-86
2022/04/12 13:14:18;;;;;;;;;;;;;;;4.67;91.14;98994.44;4906784;29;19930;-85
2022/04/12 13:16:44;;;;;;;;;;;;;;;4.62;92.21;98993.72;4903920;29;19974;-86
2022/04/12 13:19:09;;;;;;;;;;;;;;;4.63;93.93;98994.59;4905513;29;19931;-86
2022/04/12 13:21:34;;;;;;;;;;;;;;;4.71;96.15;98995.22;4906362;29;20384;-85
2022/04/12 13:23:59;;;;;;;;;;;;;;;4.96;99.08;98986.53;4905680;29;19931;-85
2022/04/12 13:26:25;;;;;;;;;;;;;;;5.18;100.00;98984.91;4904999;29;19923;-85
2022/04/12 13:28:50;;;;;;;;;;;;;;;5.33;100.00;98975.66;4904764;29;20386;-85
2022/04/12 13:31:15;;;;;;;;;;;;;;;5.42;100.00;98980.59;4903023;29;19955;-86
2022/04/12 13:33:40;;;;;;;;;;;;;;;5.52;100.00;98968.00;4906320;29;19923;-86
2022/04/12 13:36:05;;;;;;;;;;;;;;;5.58;100.00;98966.91;4906155;29;20347;-86
2022/04/12 13:38:31;;;;;;;;;;;;;;;5.62;100.00;98966.75;4906121;29;19922;-85
2022/04/12 13:40:56;;;;;;;;;;;;;;;5.69;100.00;98969.16;4907874;29;19931;-86
2022/04/12 13:43:22;;;;;;;;;;;;;;;5.70;100.00;98963.84;4908965;29;19919;-86
2022/04/12 13:45:47;;;;;;;;;;;;;;;5.74;100.00;98951.44;4909561;29;20314;-85
2022/04/12 13:48:13;;;;;;;;;;;;;;;5.81;100.00;98958.22;4931596;29;19993;-85
2022/04/12 13:50:38;;;;;;;;;;;;;;;5.84;100.00;98960.75;4908489;29;19920;-85
2022/04/12 13:53:04;;;;;;;;;;;;;;;5.87;100.00;98960.63;4932371;29;19923;-85
2022/04/12 13:55:29;;;;;;;;;;;;;;;5.89;100.00;98953.53;4909419;29;19963;-85
2022/04/12 13:57:55;;;;;;;;;;;;;;;5.90;100.00;98951.75;4908909;29;19920;-86
2022/04/12 14:00:23;;;;;;;;;;;;;;;5.95;100.00;98953.31;4910026;29;19985;-85
2022/04/12 14:02:49;;;;;;;;;;;;;;;5.96;100.00;98951.53;4907391;29;19923;-84
2022/04/12 14:05:14;;;;;;;;;;;;;;;5.97;100.00;98948.03;4908541;29;19930;-86
2022/04/12 14:07:39;;;;;;;;;;;;;;;6.00;100.00;98945.28;4909963;29;19961;-85
2022/04/12 14:10:05;;;;;;;;;;;;;;;6.03;100.00;98946.91;4910299;29;20290;-87
2022/04/12 14:12:30;;;;;;;;;;;;;;;6.04;100.00;98941.59;4908178;29;20371;-85
2022/04/12 14:14:56;;;;;;;;;;;;;;;6.06;100.00;98946.81;4909318;29;19923;-86
2022/04/12 14:17:21;;;;;;;;;;;;;;;6.07;100.00;98941.50;4908227;29;19982;-85
2022/04/12 14:19:47;;;;;;;;;;;;;;;6.10;100.00;98941.38;4909164;29;20021;-86
2022/04/12 14:22:12;;;;;;;;;;;;;;;6.09;100.00;98941.44;4906849;29;20434;-85
2022/04/12 14:24:38;;;;;;;;;;;;;;;6.14;100.00;98937.72;4907963;29;19927;-86
2022/04/12 14:27:03;;;;;;;;;;;;;;;5.95;100.00;98937.53;4909237;29;19919;-87
2022/04/12 14:29:28;;;;;;;;;;;;;;;5.31;100.00;98938.06;4909757;29;19930;-86
2022/04/12 14:31:53;;;;;;;;;;;;;;;4.98;100.00;98940.94;4906759;29;19924;-85
2022/04/12 14:34:19;;;;;;;;;;;;;;;4.90;100.00;98940.34;4910247;29;19954;-86
2022/04/12 14:36:44;;;;;;;;;;;;;;;4.85;100.00;98944.88;4906670;29;19923;-84
2022/04/12 14:39:09;;;;;;;;;;;;;;;4.69;100.00;98945.41;4907117;29;19991;-85
2022/04/12 14:41:36;;;;;;;;;;;;;;;4.70;100.00;98946.25;4910388;29;20418;-86
2022/04/12 14:44:01;;;;;;;;;;;;;;;4.61;100.00;98943.91;4907978;29;19979;-85
2022/04/12 14:46:26;;;;;;;;;;;;;;;4.56;100.00;98951.91;4907047;29;19923;-86
2022/04/12 14:48:52;;;;;;;;;;;;;;;4.58;100.00;98951.88;4907270;29;19927;-87
2022/04/12 14:51:17;;;;;;;;;;;;;;;4.51;100.00;98948.59;4908110;29;19978;-86
2022/04/12 14:53:42;;;;;;;;;;;;;;;4.51;100.00;98954.69;4908482;29;20382;-86
2022/04/12 14:56:08;;;;;;;;;;;;;;;4.56;100.00;98949.28;4930996;29;19923;-86
2022/04/12 14:58:36;;;;;;;;;;;;;;;4.50;100.00;98952.09;4908171;29;20033;-87
2022/04/12 15:01:03;;;;;;;;;;;;;;;4.49;100.00;98953.88;4907054;29;19924;-86
2022/04/12 15:03:28;;;;;;;;;;;;;;;4.46;100.00;98958.38;4907360;29;19923;-87
2022/04/12 15:05:53;;;;;;;;;;;;;;;4.35;100.00;98959.53;4908350;29;19932;-86
2022/04/12 15:08:19;;;;;;;;;;;;;;;4.42;100.00;98951.50;4905407;29;20298;-86
2022/04/12 15:10:47;;;;;;;;;;;;;;;4.36;100.00;98952.56;4905224;29;19970;-86
2022/04/12 15:13:12;;;;;;;;;;;;;;;4.33;99.99;98956.13;4903578;29;19970;-86
2022/04/12 15:15:41;;;;;;;;;;;;;;;4.26;99.53;98959.84;4906611;29;19919;-86
2022/04/12 15:18:07;;;;;;;;;;;;;;;4.36;99.13;98958.66;4906542;29;20397;-85
2022/04/12 15:20:32;;;;;;;;;;;;;;;4.25;98.49;98958.13;4908243;29;19923;-86
2022/04/12 15:22:57;;;;;;;;;;;;;;;4.29;98.24;98957.13;4930672;29;19934;-85
2022/04/12 15:25:23;;;;;;;;;;;;;;;4.30;97.76;98958.00;4907424;29;20308;-86
2022/04/12 15:27:48;;;;;;;;;;;;;;;4.22;97.23;98952.13;4906471;29;19971;-86
2022/04/12 15:30:13;;;;;;;;;;;;;;;4.21;96.79;98963.50;4906987;29;19927;-86
2022/04/12 15:32:40;;;;;;;;;;;;;;;4.19;96.28;98959.16;4929488;29;19923;-86
2022/04/12 15:35:09;;;;;;;;;;;;;;;4.19;96.02;98963.56;4908034;29;19927;-86
2022/04/12 15:37:34;;;;;;;;;;;;;;;4.13;95.61;98967.22;4907056;29;19923;-86
2022/04/12 15:39:59;;;;;;;;;;;;;;;4.08;95.50;98976.13;4905656;29;19929;-85
2022/04/12 15:42:25;;;;;;;;;;;;;;;4.10;95.09;98977.81;4907154;29;20382;-85
2022/04/12 15:44:50;;;;;;;;;;;;;;;4.12;94.88;98976.00;4905883;29;20318;-85
2022/04/12 15:47:15;;;;;;;;;;;;;;;4.06;94.35;98973.53;4905907;29;20023;-86
2022/04/12 15:49:43;;;;;;;;;;;;;;;4.04;94.28;98977.97;4905231;29;19974;-85
2022/04/12 15:52:09;;;;;;;;;;;;;;;4.11;94.05;98976.88;4907921;29;19923;-86
2022/04/12 15:54:34;;;;;;;;;;;;;;;4.04;93.93;98985.84;4907462;29;19920;-86
2022/04/12 15:56:59;;;;;;;;;;;;;;;3.97;93.83;98984.28;4908155;29;19970;-86
2022/04/12 15:59:24;;;;;;;;;;;;;;;3.97;93.96;98992.16;4907811;29;20363;-86
2022/04/12 16:01:49;;;;;;;;;;;;;;;3.99;93.58;98987.75;4906500;29;19926;-86
2022/04/12 16:04:15;;;;;;;;;;;;;;;3.99;93.52;98982.50;4905877;29;19975;-86
2022/04/12 16:06:41;;;;;;;;;;;;;;;4.03;93.49;98986.75;4907459;29;19926;-86
2022/04/12 16:09:06;;;;;;;;;;;;;;;3.99;93.21;98993.00;4907723;29;20022;-86
2022/04/12 16:11:31;;;;;;;;;;;;;;;3.99;93.18;98988.59;4906724;29;19927;-86
2022/04/12 16:13:57;;;;;;;;;;;;;;;4.01;93.02;98991.19;4906565;29;19979;-85
2022/04/12 16:16:22;;;;;;;;;;;;;;;3.95;92.98;98999.22;4904536;29;19930;-86
2022/04/12 16:18:48;;;;;;;;;;;;;;;3.97;93.23;98993.03;4905976;29;20285;-85
2022/04/12 16:21:14;;;;;;;;;;;;;;;3.93;93.18;98990.53;4907209;29;19923;-85
2022/04/12 16:23:39;;;;;;;;;;;;;;;3.98;93.19;98991.25;4907202;29;19919;-85
2022/04/12 16:26:05;;;;;;;;;;;;;;;3.95;93.24;98999.22;4906963;29;20375;-85
2022/04/12 16:28:30;;;;;;;;;;;;;;;3.93;93.21;98991.41;4906715;29;19919;-86
2022/04/12 16:30:55;;;;;;;;;;;;;;;3.94;93.14;98987.88;4906812;29;20291;-86
2022/04/12 16:33:21;;;;;;;;;;;;;;;3.90;93.16;98999.34;4906493;29;19927;-86
2022/04/12 16:35:46;;;;;;;;;;;;;;;3.93;93.17;98996.63;4906778;29;19930;-86
2022/04/12 16:38:12;;;;;;;;;;;;;;;3.90;93.17;98994.09;4906319;29;19923;-85
2022/04/12 16:40:38;;;;;;;;;;;;;;;3.93;93.13;98998.41;4906557;29;19930;-85
2022/04/12 16:43:04;;;;;;;;;;;;;;;3.90;92.97;99001.13;4906646;29;19919;-86
2022/04/12 16:45:29;;;;;;;;;;;;;;;3.88;93.06;98995.03;4905928;29;19927;-86
2022/04/12 16:47:55;;;;;;;;;;;;;;;3.88;92.97;98993.28;4903689;29;19927;-86
2022/04/12 16:50:20;;;;;;;;;;;;;;;3.90;93.09;98998.50;4906515;29;19927;-85
2022/04/12 16:52:46;;;;;;;;;;;;;;;3.88;93.06;99001.16;4905540;29;19923;-85
2022/04/12 16:55:12;;;;;;;;;;;;;;;3.92;92.91;98999.31;4905136;29;19978;-86
2022/04/12 16:57:38;;;;;;;;;;;;;;;3.86;92.75;98997.72;4907609;29;19926;-85
2022/04/12 17:00:04;;;;;;;;;;;;;;;3.85;92.90;98989.91;4905171;29;19970;-86
2022/04/12 17:02:30;;;;;;;;;;;;;;;3.85;92.94;98990.75;4904206;29;19918;-86
2022/04/12 17:04:57;;;;;;;;;;;;;;;3.87;92.62;98988.09;4904744;29;19931;-86
2022/04/12 17:07:22;;;;;;;;;;;;;;;3.82;92.60;98990.84;4928590;29;19934;-85
2022/04/12 17:09:48;;;;;;;;;;;;;;;3.79;92.51;98990.91;4906679;29;19919;-86
2022/04/12 17:12:13;;;;;;;;;;;;;;;3.75;92.45;98992.78;4906734;29;19919;-86
2022/04/12 17:14:38;;;;;;;;;;;;;;;3.76;92.35;99002.34;4905012;29;19919;-86
2022/04/12 17:17:13;;;;;;;;;;;;;;;3.71;92.42;98999.00;4905023;29;19978;-86
2022/04/12 17:19:38;;;;;;;;;;;;;;;3.75;92.40;99005.00;4905888;29;19919;-86
2022/04/12 17:22:03;;;;;;;;;;;;;;;3.70;92.23;99002.53;4906549;29;20331;-86
2022/04/12 17:24:29;;;;;;;;;;;;;;;3.68;92.33;99000.84;4906010;29;19947;-85
2022/04/12 17:26:54;;;;;;;;;;;;;;;3.69;92.37;99003.44;4905695;29;19920;-86
2022/04/12 17:29:23;;;;;;;;;;;;;;;3.68;92.33;99006.94;4904663;29;20294;-86
2022/04/12 17:31:48;;;;;;;;;;;;;;;3.71;92.11;99014.72;4905046;29;20371;-85
2022/04/12 17:34:14;;;;;;;;;;;;;;;3.71;92.23;99022.56;4927844;29;19930;-86
2022/04/12 17:36:43;;;;;;;;;;;;;;;3.66;91.81;99026.22;4906047;29;19919;-85
2022/04/12 17:39:08;;;;;;;;;;;;;;;3.69;91.87;99026.16;4905157;29;20355;-86
2022/04/12 17:41:34;;;;;;;;;;;;;;;3.66;91.95;99034.09;4905713;29;19966;-86
2022/04/12 17:44:01;;;;;;;;;;;;;;;3.71;91.88;99030.44;4905944;29;19923;-86
2022/04/12 17:46:27;;;;;;;;;;;;;;;3.68;91.51;99035.75;4927046;29;20444;-86
2022/04/12 17:48:55;;;;;;;;;;;;;;;3.73;91.65;99033.00;4904921;29;20184;-86
2022/04/12 17:51:21;;;;;;;;;;;;;;;3.61;91.58;99039.44;4928831;29;19919;-86
2022/04/12 17:53:48;;;;;;;;;;;;;;;3.62;91.65;99036.78;4905274;29;19936;-86
2022/04/12 17:56:14;;;;;;;;;;;;;;;3.65;91.71;99046.31;4905603;29;20066;-86
2022/04/12 17:58:40;;;;;;;;;;;;;;;3.60;91.63;99040.34;4905938;29;20022;-85
2022/04/12 18:01:05;;;;;;;;;;;;;;;3.69;91.45;99042.72;4904496;29;20445;-86
2022/04/12 18:03:32;;;;;;;;;;;;;;;3.63;91.23;99040.25;4905404;29;19923;-86
2022/04/12 18:05:58;;;;;;;;;;;;;;;3.67;91.26;99044.53;4906144;29;19929;-86
2022/04/12 18:08:23;;;;;;;;;;;;;;;3.61;91.11;99048.16;4903941;29;20014;-86
2022/04/12 18:10:48;;;;;;;;;;;;;;;3.61;91.26;99055.16;4905024;29;19924;-86
2022/04/12 18:13:14;;;;;;;;;;;;;;;3.64;91.22;99055.09;4905221;29;19971;-86
2022/04/12 18:15:39;;;;;;;;;;;;;;;3.66;91.17;99053.28;4904345;29;19923;-86
2022/04/12 18:18:04;;;;;;;;;;;;;;;3.61;90.97;99055.16;4903345;29;19920;-86
2022/04/12 18:20:29;;;;;;;;;;;;;;;3.64;91.10;99055.94;4906389;29;19935;-87
2022/04/12 18:22:55;;;;;;;;;;;;;;;3.66;90.89;99063.75;4904845;29;19969;-85
2022/04/12 18:25:20;;;;;;;;;;;;;;;3.63;90.96;99059.44;4904517;29;19919;-87
2022/04/12 18:27:45;;;;;;;;;;;;;;;3.62;90.89;99063.00;4906847;29;20264;-86
2022/04/12 18:30:11;;;;;;;;;;;;;;;3.60;90.67;99066.53;4909150;29;19962;-87
2022/04/12 18:32:37;;;;;;;;;;;;;;;3.64;90.74;99070.81;4908136;29;20295;-86
2022/04/12 18:35:04;;;;;;;;;;;;;;;3.62;90.58;99073.47;4907486;29;19920;-87
2022/04/12 18:37:31;;;;;;;;;;;;;;;3.59;90.74;99070.06;4907668;29;19923;-86
2022/04/12 18:39:57;;;;;;;;;;;;;;;3.67;90.61;99078.59;4908726;29;20010;-86
2022/04/12 18:42:22;;;;;;;;;;;;;;;3.59;90.39;99070.94;4908741;29;20005;-86
2022/04/12 18:44:47;;;;;;;;;;;;;;;3.60;90.44;99079.63;4909289;29;19930;-86
2022/04/12 18:47:12;;;;;;;;;;;;;;;3.60;90.35;99075.25;4906222;29;20268;-86